createdAt,value
2022-12-24T00:00:12.257Z,0
2022-12-24T00:01:12.168Z,0
2022-12-24T00:02:12.318Z,0
2022-12-24T00:03:12.247Z,0
2022-12-24T00:04:12.181Z,0
2022-12-24T00:05:12.176Z,0
2022-12-24T00:06:12.165Z,0
2022-12-24T00:07:12.171Z,0
2022-12-24T00:08:12.167Z,0
2022-12-24T00:09:12.182Z,0
2022-12-24T00:10:12.176Z,0
2022-12-24T00:11:12.168Z,0
2022-12-24T00:12:12.165Z,0
2022-12-24T00:13:12.172Z,0
2022-12-24T00:14:12.167Z,0
2022-12-24T00:15:12.178Z,0
2022-12-24T00:16:12.177Z,0
2022-12-24T00:17:12.202Z,0
2022-12-24T00:18:12.151Z,0
2022-12-24T00:19:12.172Z,0
2022-12-24T00:20:12.180Z,0
2022-12-24T00:21:12.166Z,0
2022-12-24T00:22:12.153Z,0
2022-12-24T00:23:12.155Z,0
2022-12-24T00:24:12.176Z,0
2022-12-24T00:25:12.159Z,0
2022-12-24T00:26:12.158Z,0
2022-12-24T00:27:12.148Z,0
2022-12-24T00:28:12.163Z,0
2022-12-24T00:29:12.172Z,0
2022-12-24T00:30:12.163Z,0
2022-12-24T00:31:12.276Z,0
2022-12-24T00:32:12.158Z,0
2022-12-24T00:33:12.160Z,0
2022-12-24T00:34:12.168Z,0
2022-12-24T00:35:12.227Z,0
2022-12-24T00:36:12.158Z,0
2022-12-24T00:37:12.148Z,0
2022-12-24T00:38:12.185Z,0
2022-12-24T00:39:12.169Z,0
2022-12-24T00:40:12.154Z,0
2022-12-24T00:41:12.246Z,0
2022-12-24T00:42:12.166Z,0
2022-12-24T00:43:12.158Z,0
2022-12-24T00:44:12.173Z,0
2022-12-24T00:45:12.159Z,0
2022-12-24T00:46:12.273Z,0
2022-12-24T00:47:12.455Z,0
2022-12-24T00:48:12.148Z,0
2022-12-24T00:49:12.183Z,0
2022-12-24T00:50:12.179Z,0
2022-12-24T00:51:12.215Z,0
2022-12-24T00:52:12.166Z,0
2022-12-24T00:53:12.163Z,0
2022-12-24T00:54:12.176Z,0
2022-12-24T00:55:12.174Z,0
2022-12-24T00:56:12.165Z,0
2022-12-24T00:57:12.181Z,0
2022-12-24T00:58:12.156Z,0
2022-12-24T00:59:12.188Z,0
2022-12-24T01:00:12.193Z,0
2022-12-24T01:01:12.332Z,0
2022-12-24T01:02:12.414Z,0
2022-12-24T01:03:12.285Z,0
2022-12-24T01:04:12.185Z,0
2022-12-24T01:05:12.200Z,0
2022-12-24T01:06:12.175Z,0
2022-12-24T01:07:12.168Z,0
2022-12-24T01:08:12.163Z,0
2022-12-24T01:09:12.175Z,0
2022-12-24T01:10:12.168Z,0
2022-12-24T01:11:12.175Z,0
2022-12-24T01:12:12.177Z,0
2022-12-24T01:13:12.256Z,0
2022-12-24T01:14:12.183Z,0
2022-12-24T01:15:12.173Z,0
2022-12-24T01:16:12.235Z,0
2022-12-24T01:17:12.163Z,0
2022-12-24T01:18:12.171Z,0
2022-12-24T01:19:12.179Z,0
2022-12-24T01:20:12.212Z,0
2022-12-24T01:21:12.152Z,0
2022-12-24T01:22:12.170Z,0
2022-12-24T01:23:12.167Z,0
2022-12-24T01:24:12.199Z,0
2022-12-24T01:25:12.153Z,0
2022-12-24T01:26:12.209Z,0
2022-12-24T01:27:12.190Z,0
2022-12-24T01:28:12.170Z,0
2022-12-24T01:29:12.180Z,0
2022-12-24T01:30:12.156Z,0
2022-12-24T01:31:12.250Z,0
2022-12-24T01:32:12.183Z,0
2022-12-24T01:33:12.165Z,0
2022-12-24T01:34:12.179Z,0
2022-12-24T01:35:12.190Z,0
2022-12-24T01:36:12.206Z,0
2022-12-24T01:37:12.157Z,0
2022-12-24T01:38:12.150Z,0
2022-12-24T01:39:12.161Z,0
2022-12-24T01:40:12.151Z,0
2022-12-24T01:41:12.159Z,0
2022-12-24T01:42:12.158Z,0
2022-12-24T01:43:12.161Z,0
2022-12-24T01:44:12.172Z,0
2022-12-24T01:45:12.149Z,0
2022-12-24T01:46:12.210Z,0
2022-12-24T01:47:12.165Z,0
2022-12-24T01:48:12.150Z,0
2022-12-24T01:49:12.193Z,0
2022-12-24T01:50:12.173Z,0
2022-12-24T01:51:12.161Z,0
2022-12-24T01:52:12.158Z,0
2022-12-24T01:53:12.171Z,0
2022-12-24T01:54:12.253Z,0
2022-12-24T01:55:12.165Z,0
2022-12-24T01:56:12.179Z,0
2022-12-24T01:57:12.170Z,0
2022-12-24T01:58:12.197Z,0
2022-12-24T01:59:12.173Z,0
2022-12-24T02:00:12.167Z,0
2022-12-24T02:01:12.281Z,0
2022-12-24T02:02:12.312Z,0
2022-12-24T02:03:12.227Z,0
2022-12-24T02:04:12.163Z,0
2022-12-24T02:05:12.170Z,0
2022-12-24T02:06:12.196Z,0
2022-12-24T02:07:12.173Z,0
2022-12-24T02:08:12.170Z,0
2022-12-24T02:09:12.173Z,0
2022-12-24T02:10:12.182Z,0
2022-12-24T02:11:12.172Z,0
2022-12-24T02:12:12.170Z,0
2022-12-24T02:13:12.168Z,0
2022-12-24T02:14:12.187Z,0
2022-12-24T02:15:12.167Z,0
2022-12-24T02:16:12.243Z,0
2022-12-24T02:17:12.156Z,0
2022-12-24T02:18:12.170Z,0
2022-12-24T02:19:12.171Z,0
2022-12-24T02:20:12.182Z,0
2022-12-24T02:21:12.177Z,0
2022-12-24T02:22:12.186Z,0
2022-12-24T02:23:12.162Z,0
2022-12-24T02:24:12.181Z,0
2022-12-24T02:25:12.159Z,0
2022-12-24T02:26:12.159Z,0
2022-12-24T02:27:12.167Z,0
2022-12-24T02:28:12.165Z,0
2022-12-24T02:29:12.189Z,0
2022-12-24T02:30:12.205Z,0
2022-12-24T02:31:12.256Z,0
2022-12-24T02:32:12.146Z,0
2022-12-24T02:33:12.167Z,0
2022-12-24T02:34:12.167Z,0
2022-12-24T02:35:12.183Z,0
2022-12-24T02:36:12.146Z,0
2022-12-24T02:37:12.158Z,0
2022-12-24T02:38:12.162Z,0
2022-12-24T02:39:12.168Z,0
2022-12-24T02:40:15.948Z,0
2022-12-24T02:41:12.164Z,0
2022-12-24T02:42:12.176Z,0
2022-12-24T02:43:12.192Z,0
2022-12-24T02:44:12.190Z,0
2022-12-24T02:45:12.187Z,0
2022-12-24T02:46:12.203Z,0
2022-12-24T02:47:12.140Z,0
2022-12-24T02:48:12.163Z,0
2022-12-24T02:49:12.164Z,0
2022-12-24T02:50:12.158Z,0
2022-12-24T02:51:12.150Z,0
2022-12-24T02:52:12.142Z,0
2022-12-24T02:53:12.145Z,0
2022-12-24T02:54:12.161Z,0
2022-12-24T02:55:12.174Z,0
2022-12-24T02:56:12.147Z,0
2022-12-24T02:57:12.145Z,0
2022-12-24T02:58:12.147Z,0
2022-12-24T02:59:12.163Z,0
2022-12-24T03:00:12.150Z,0
2022-12-24T03:01:12.263Z,0
2022-12-24T03:02:12.262Z,0
2022-12-24T03:03:12.147Z,0
2022-12-24T03:04:12.162Z,0
2022-12-24T03:05:12.181Z,0
2022-12-24T03:06:12.153Z,0
2022-12-24T03:07:12.155Z,0
2022-12-24T03:08:12.151Z,0
2022-12-24T03:09:12.154Z,0
2022-12-24T03:10:12.152Z,0
2022-12-24T03:11:12.155Z,0
2022-12-24T03:12:12.168Z,0
2022-12-24T03:13:12.148Z,0
2022-12-24T03:14:12.162Z,0
2022-12-24T03:15:12.160Z,0
2022-12-24T03:16:12.229Z,0
2022-12-24T03:17:12.150Z,0
2022-12-24T03:18:12.176Z,0
2022-12-24T03:19:12.190Z,0
2022-12-24T03:20:12.170Z,0
2022-12-24T03:21:12.159Z,0
2022-12-24T03:22:12.165Z,0
2022-12-24T03:23:12.178Z,0
2022-12-24T03:24:12.165Z,0
2022-12-24T03:25:12.164Z,0
2022-12-24T03:26:12.160Z,0
2022-12-24T03:27:12.163Z,0
2022-12-24T03:28:12.164Z,0
2022-12-24T03:29:12.174Z,0
2022-12-24T03:30:12.150Z,0
2022-12-24T03:31:12.305Z,0
2022-12-24T03:32:12.162Z,0
2022-12-24T03:33:12.158Z,0
2022-12-24T03:34:12.172Z,0
2022-12-24T03:35:12.162Z,0
2022-12-24T03:36:12.166Z,0
2022-12-24T03:37:12.158Z,0
2022-12-24T03:38:12.164Z,0
2022-12-24T03:39:12.176Z,0
2022-12-24T03:40:12.161Z,0
2022-12-24T03:41:12.168Z,0
2022-12-24T03:42:12.191Z,0
2022-12-24T03:43:12.172Z,0
2022-12-24T03:44:12.171Z,0
2022-12-24T03:45:12.171Z,0
2022-12-24T03:46:12.252Z,0
2022-12-24T03:47:12.159Z,0
2022-12-24T03:48:12.162Z,0
2022-12-24T03:49:12.183Z,0
2022-12-24T03:50:12.175Z,0
2022-12-24T03:51:12.149Z,0
2022-12-24T03:52:12.181Z,0
2022-12-24T03:53:12.176Z,0
2022-12-24T03:54:12.196Z,0
2022-12-24T03:55:12.156Z,0
2022-12-24T03:56:12.175Z,0
2022-12-24T03:57:12.199Z,0
2022-12-24T03:58:12.166Z,0
2022-12-24T03:59:12.172Z,0
2022-12-24T04:00:12.184Z,0
2022-12-24T04:01:12.264Z,0
2022-12-24T04:02:12.424Z,0
2022-12-24T04:03:12.201Z,0
2022-12-24T04:04:12.162Z,0
2022-12-24T04:05:12.171Z,0
2022-12-24T04:06:12.166Z,0
2022-12-24T04:07:12.154Z,0
2022-12-24T04:08:12.253Z,0
2022-12-24T04:09:12.158Z,0
2022-12-24T04:10:12.139Z,0
2022-12-24T04:11:12.155Z,0
2022-12-24T04:12:12.154Z,0
2022-12-24T04:13:12.146Z,0
2022-12-24T04:14:12.160Z,0
2022-12-24T04:15:12.145Z,0
2022-12-24T04:16:12.185Z,0
2022-12-24T04:17:12.144Z,0
2022-12-24T04:18:12.142Z,0
2022-12-24T04:19:12.165Z,0
2022-12-24T04:20:12.167Z,0
2022-12-24T04:21:12.150Z,0
2022-12-24T04:22:12.148Z,0
2022-12-24T04:23:12.151Z,0
2022-12-24T04:24:12.174Z,0
2022-12-24T04:25:12.149Z,0
2022-12-24T04:26:12.143Z,0
2022-12-24T04:27:12.155Z,0
2022-12-24T04:28:12.157Z,0
2022-12-24T04:29:12.169Z,0
2022-12-24T04:30:12.155Z,0
2022-12-24T04:31:12.156Z,0
2022-12-24T04:32:12.309Z,0
2022-12-24T04:33:12.161Z,0
2022-12-24T04:34:12.211Z,0
2022-12-24T04:35:12.170Z,0
2022-12-24T04:36:12.170Z,0
2022-12-24T04:37:12.168Z,0
2022-12-24T04:38:12.172Z,0
2022-12-24T04:39:12.174Z,0
2022-12-24T04:40:12.166Z,0
2022-12-24T04:41:16.039Z,0
2022-12-24T04:42:12.151Z,0
2022-12-24T04:43:12.178Z,0
2022-12-24T04:44:12.175Z,0
2022-12-24T04:45:12.168Z,0
2022-12-24T04:46:12.207Z,0
2022-12-24T04:47:12.194Z,0
2022-12-24T04:48:12.166Z,0
2022-12-24T04:49:12.179Z,0
2022-12-24T04:50:12.180Z,0
2022-12-24T04:51:12.181Z,0
2022-12-24T04:52:12.173Z,0
2022-12-24T04:53:12.172Z,0
2022-12-24T04:54:12.168Z,0
2022-12-24T04:55:12.182Z,0
2022-12-24T04:56:12.167Z,0
2022-12-24T04:57:12.179Z,0
2022-12-24T04:58:12.162Z,0
2022-12-24T04:59:12.177Z,0
2022-12-24T05:00:12.162Z,0
2022-12-24T05:01:12.214Z,0
2022-12-24T05:02:12.270Z,0
2022-12-24T05:03:12.231Z,0
2022-12-24T05:04:12.179Z,0
2022-12-24T05:05:12.181Z,0
2022-12-24T05:06:12.174Z,0
2022-12-24T05:07:12.161Z,0
2022-12-24T05:08:12.153Z,0
2022-12-24T05:09:12.181Z,0
2022-12-24T05:10:12.157Z,0
2022-12-24T05:11:12.168Z,0
2022-12-24T05:12:12.172Z,0
2022-12-24T05:13:12.187Z,0
2022-12-24T05:14:12.172Z,0
2022-12-24T05:15:12.175Z,0
2022-12-24T05:16:12.245Z,0
2022-12-24T05:17:12.254Z,0
2022-12-24T05:18:12.167Z,0
2022-12-24T05:19:12.173Z,0
2022-12-24T05:20:12.171Z,0
2022-12-24T05:21:12.154Z,0
2022-12-24T05:22:12.147Z,0
2022-12-24T05:23:12.149Z,0
2022-12-24T05:24:12.224Z,0
2022-12-24T05:25:12.149Z,0
2022-12-24T05:26:12.159Z,0
2022-12-24T05:27:12.143Z,0
2022-12-24T05:28:12.147Z,0
2022-12-24T05:29:12.183Z,0
2022-12-24T05:30:12.167Z,0
2022-12-24T05:31:12.174Z,0
2022-12-24T05:32:12.153Z,0
2022-12-24T05:33:12.159Z,0
2022-12-24T05:34:12.167Z,0
2022-12-24T05:35:12.211Z,0
2022-12-24T05:36:12.155Z,0
2022-12-24T05:37:12.143Z,0
2022-12-24T05:38:12.144Z,0
2022-12-24T05:39:15.723Z,0
2022-12-24T05:40:12.161Z,0
2022-12-24T05:41:12.144Z,0
2022-12-24T05:42:12.149Z,0
2022-12-24T05:43:12.156Z,0
2022-12-24T05:44:12.221Z,0
2022-12-24T05:45:12.197Z,0
2022-12-24T05:46:12.244Z,0
2022-12-24T05:47:12.158Z,0
2022-12-24T05:48:12.179Z,0
2022-12-24T05:49:12.190Z,0
2022-12-24T05:50:12.169Z,0
2022-12-24T05:51:12.178Z,0
2022-12-24T05:52:12.156Z,0
2022-12-24T05:53:12.167Z,0
2022-12-24T05:54:12.249Z,0
2022-12-24T05:55:12.168Z,0
2022-12-24T05:56:12.190Z,0
2022-12-24T05:57:12.174Z,0
2022-12-24T05:58:12.177Z,0
2022-12-24T05:59:12.189Z,0
2022-12-24T06:00:12.152Z,0
2022-12-24T06:01:12.192Z,0
2022-12-24T06:02:12.248Z,0
2022-12-24T06:03:12.163Z,0
2022-12-24T06:04:12.225Z,0
2022-12-24T06:05:12.249Z,0
2022-12-24T06:06:12.169Z,0
2022-12-24T06:07:12.167Z,0
2022-12-24T06:08:12.162Z,0
2022-12-24T06:09:12.171Z,0
2022-12-24T06:10:12.141Z,0
2022-12-24T06:11:12.169Z,0
2022-12-24T06:12:12.160Z,0
2022-12-24T06:13:12.148Z,0
2022-12-24T06:14:12.182Z,0
2022-12-24T06:15:12.163Z,0
2022-12-24T06:16:12.237Z,0
2022-12-24T06:17:12.168Z,0
2022-12-24T06:18:12.164Z,0
2022-12-24T06:19:12.239Z,0
2022-12-24T06:20:12.164Z,0
2022-12-24T06:21:12.169Z,0
2022-12-24T06:22:12.161Z,0
2022-12-24T06:23:12.184Z,0
2022-12-24T06:24:12.278Z,0
2022-12-24T06:25:12.227Z,0
2022-12-24T06:26:12.172Z,0
2022-12-24T06:27:12.153Z,0
2022-12-24T06:28:12.159Z,0
2022-12-24T06:29:12.158Z,0
2022-12-24T06:30:12.174Z,0
2022-12-24T06:31:12.160Z,0
2022-12-24T06:32:12.150Z,0
2022-12-24T06:33:12.147Z,0
2022-12-24T06:34:12.200Z,0
2022-12-24T06:35:12.190Z,0
2022-12-24T06:36:17.141Z,0
2022-12-24T06:37:12.143Z,0
2022-12-24T06:38:12.152Z,0
2022-12-24T06:39:12.169Z,0
2022-12-24T06:40:12.150Z,0
2022-12-24T06:41:12.141Z,0
2022-12-24T06:42:12.149Z,0
2022-12-24T06:43:12.154Z,0
2022-12-24T06:44:12.234Z,0
2022-12-24T06:45:12.147Z,0
2022-12-24T06:46:12.163Z,0
2022-12-24T06:47:12.145Z,0
2022-12-24T06:48:12.172Z,0
2022-12-24T06:49:12.167Z,0
2022-12-24T06:50:12.161Z,0.01
2022-12-24T06:51:12.141Z,0.01
2022-12-24T06:52:12.147Z,0.01
2022-12-24T06:53:12.223Z,0.01
2022-12-24T06:54:12.162Z,0.02
2022-12-24T06:55:12.142Z,0.02
2022-12-24T06:56:12.152Z,0.02
2022-12-24T06:57:12.155Z,0.02
2022-12-24T06:58:12.176Z,0.02
2022-12-24T06:59:12.173Z,0.02
2022-12-24T07:00:12.151Z,0.02
2022-12-24T07:01:12.345Z,0.02
2022-12-24T07:02:12.397Z,0.02
2022-12-24T07:03:12.167Z,0.02
2022-12-24T07:04:19.677Z,0.02
2022-12-24T07:05:12.182Z,0.03
2022-12-24T07:06:12.152Z,0.03
2022-12-24T07:07:12.158Z,0.03
2022-12-24T07:08:12.159Z,0.04
2022-12-24T07:09:12.290Z,0.04
2022-12-24T07:10:12.161Z,0.05
2022-12-24T07:11:12.176Z,0.05
2022-12-24T07:12:12.185Z,0.06
2022-12-24T07:13:12.176Z,0.06
2022-12-24T07:14:12.171Z,0.06
2022-12-24T07:15:12.164Z,0.07
2022-12-24T07:16:12.297Z,0.08
2022-12-24T07:17:12.287Z,0.09
2022-12-24T07:18:12.183Z,0.09
2022-12-24T07:19:12.182Z,0.11
2022-12-24T07:20:12.167Z,0.12
2022-12-24T07:21:12.190Z,0.12
2022-12-24T07:22:15.729Z,0.13
2022-12-24T07:23:12.169Z,0.15
2022-12-24T07:24:12.173Z,0.15
2022-12-24T07:25:12.156Z,0.16
2022-12-24T07:26:12.198Z,0.17
2022-12-24T07:27:12.164Z,0.18
2022-12-24T07:28:12.171Z,0.19
2022-12-24T07:29:12.185Z,0.19
2022-12-24T07:30:12.170Z,0.2
2022-12-24T07:31:12.366Z,0.2
2022-12-24T07:32:12.155Z,0.21
2022-12-24T07:33:12.262Z,0.22
2022-12-24T07:34:12.237Z,0.23
2022-12-24T07:35:12.173Z,0.25
2022-12-24T07:36:12.173Z,0.26
2022-12-24T07:37:12.160Z,0.27
2022-12-24T07:38:12.161Z,0.27
2022-12-24T07:39:12.170Z,0.29
2022-12-24T07:40:12.155Z,0.31
2022-12-24T07:41:12.165Z,0.33
2022-12-24T07:42:12.170Z,0.34
2022-12-24T07:43:12.170Z,0.34
2022-12-24T07:44:12.179Z,0.34
2022-12-24T07:45:12.167Z,0.34
2022-12-24T07:46:12.183Z,0.35
2022-12-24T07:47:12.226Z,0.37
2022-12-24T07:48:12.148Z,0.38
2022-12-24T07:49:12.176Z,0.39
2022-12-24T07:50:12.170Z,0.4
2022-12-24T07:51:12.152Z,0.41
2022-12-24T07:52:12.145Z,0.42
2022-12-24T07:53:12.151Z,0.43
2022-12-24T07:54:12.162Z,0.46
2022-12-24T07:55:12.146Z,0.48
2022-12-24T07:56:12.862Z,0.5
2022-12-24T07:57:12.151Z,0.52
2022-12-24T07:58:12.149Z,0.56
2022-12-24T07:59:12.165Z,0.59
2022-12-24T08:00:12.168Z,0.65
2022-12-24T08:01:12.252Z,0.66
2022-12-24T08:02:17.995Z,0.64
2022-12-24T08:03:12.293Z,0.64
2022-12-24T08:04:12.210Z,0.66
2022-12-24T08:05:12.158Z,0.68
2022-12-24T08:06:12.221Z,0.64
2022-12-24T08:07:12.162Z,0.57
2022-12-24T08:08:12.151Z,0.58
2022-12-24T08:09:12.172Z,0.58
2022-12-24T08:10:12.160Z,1.15
2022-12-24T08:11:12.173Z,1.74
2022-12-24T08:12:12.167Z,1.84
2022-12-24T08:13:12.236Z,1.76
2022-12-24T08:14:12.176Z,1.57
2022-12-24T08:15:12.161Z,1.22
2022-12-24T08:16:12.266Z,1.88
2022-12-24T08:17:12.166Z,1.69
2022-12-24T08:18:12.159Z,1.33
2022-12-24T08:19:12.283Z,1.97
2022-12-24T08:20:12.183Z,1.63
2022-12-24T08:21:12.174Z,1.83
2022-12-24T08:22:12.176Z,2.26
2022-12-24T08:23:12.180Z,2.06
2022-12-24T08:24:12.166Z,1.41
2022-12-24T08:25:12.161Z,1.42
2022-12-24T08:26:12.164Z,1.31
2022-12-24T08:27:12.179Z,2.16
2022-12-24T08:28:12.171Z,2.69
2022-12-24T08:29:12.171Z,3.08
2022-12-24T08:30:17.474Z,3.11
2022-12-24T08:31:12.211Z,3.22
2022-12-24T08:32:12.169Z,3.37
2022-12-24T08:33:12.170Z,3.2
2022-12-24T08:34:12.170Z,2.97
2022-12-24T08:35:12.176Z,2.99
2022-12-24T08:36:12.179Z,3.21
2022-12-24T08:37:12.152Z,2.73
2022-12-24T08:38:12.173Z,1.34
2022-12-24T08:39:12.250Z,1.97
2022-12-24T08:40:12.161Z,0.88
2022-12-24T08:41:12.186Z,0.81
2022-12-24T08:42:12.221Z,0.79
2022-12-24T08:43:12.167Z,0.72
2022-12-24T08:44:12.180Z,0.74
2022-12-24T08:45:12.168Z,0.68
2022-12-24T08:46:12.269Z,0.71
2022-12-24T08:47:12.188Z,0.74
2022-12-24T08:48:12.165Z,0.79
2022-12-24T08:49:12.191Z,1.74
2022-12-24T08:50:12.176Z,1.22
2022-12-24T08:51:12.190Z,1.22
2022-12-24T08:52:12.170Z,2.75
2022-12-24T08:53:12.160Z,1.16
2022-12-24T08:54:12.191Z,2.3
2022-12-24T08:55:12.165Z,0.97
2022-12-24T08:56:12.172Z,1.03
2022-12-24T08:57:12.172Z,0.85
2022-12-24T08:58:12.148Z,0.86
2022-12-24T08:59:12.166Z,0.83
2022-12-24T09:00:12.149Z,0.74
2022-12-24T09:01:12.203Z,0.7
2022-12-24T09:02:12.350Z,0.66
2022-12-24T09:03:14.295Z,0.65
2022-12-24T09:04:12.166Z,0.67
2022-12-24T09:05:12.164Z,0.72
2022-12-24T09:06:12.150Z,0.83
2022-12-24T09:07:12.162Z,0.91
2022-12-24T09:08:12.144Z,0.93
2022-12-24T09:09:12.167Z,0.93
2022-12-24T09:10:12.173Z,0.93
2022-12-24T09:11:12.148Z,0.84
2022-12-24T09:12:12.147Z,0.81
2022-12-24T09:13:12.145Z,0.76
2022-12-24T09:14:12.164Z,0.72
2022-12-24T09:15:12.158Z,0.79
2022-12-24T09:16:12.206Z,0.88
2022-12-24T09:17:12.148Z,0.93
2022-12-24T09:18:12.159Z,0.96
2022-12-24T09:19:12.165Z,1
2022-12-24T09:20:12.170Z,1.07
2022-12-24T09:21:12.145Z,1.41
2022-12-24T09:22:12.145Z,1.72
2022-12-24T09:23:12.168Z,3.16
2022-12-24T09:24:12.173Z,3.69
2022-12-24T09:25:12.167Z,3.38
2022-12-24T09:26:12.165Z,1.35
2022-12-24T09:27:12.168Z,1.12
2022-12-24T09:28:12.236Z,1.09
2022-12-24T09:29:12.171Z,1.12
2022-12-24T09:30:12.153Z,1.12
2022-12-24T09:31:12.334Z,1.67
2022-12-24T09:32:12.260Z,2
2022-12-24T09:33:12.164Z,1.96
2022-12-24T09:34:12.178Z,1.48
2022-12-24T09:35:12.183Z,1.75
2022-12-24T09:36:12.170Z,1.61
2022-12-24T09:37:12.208Z,1.89
2022-12-24T09:38:12.162Z,1.98
2022-12-24T09:39:12.239Z,3.72
2022-12-24T09:40:12.152Z,3.72
2022-12-24T09:41:12.148Z,1.59
2022-12-24T09:42:12.162Z,1.63
2022-12-24T09:43:12.159Z,2
2022-12-24T09:44:12.185Z,2.54
2022-12-24T09:45:12.176Z,2.51
2022-12-24T09:46:12.302Z,2.67
2022-12-24T09:47:12.168Z,3.52
2022-12-24T09:48:12.169Z,3.74
2022-12-24T09:49:12.183Z,4.03
2022-12-24T09:50:12.177Z,4.03
2022-12-24T09:51:12.236Z,4.36
2022-12-24T09:52:12.182Z,4.74
2022-12-24T09:53:12.165Z,4.97
2022-12-24T09:54:12.181Z,5.35
2022-12-24T09:55:12.149Z,5.69
2022-12-24T09:56:12.171Z,6.2
2022-12-24T09:57:12.189Z,6.36
2022-12-24T09:58:12.168Z,6.46
2022-12-24T09:59:12.170Z,6.52
2022-12-24T10:00:12.147Z,6.52
2022-12-24T10:01:12.282Z,6.92
2022-12-24T10:02:12.306Z,7.05
2022-12-24T10:03:12.211Z,7.13
2022-12-24T10:04:12.179Z,7.07
2022-12-24T10:05:12.179Z,7.01
2022-12-24T10:06:12.183Z,7.05
2022-12-24T10:07:12.165Z,6.76
2022-12-24T10:08:12.145Z,3.55
2022-12-24T10:09:12.211Z,3.55
2022-12-24T10:10:12.169Z,3.55
2022-12-24T10:11:12.169Z,7.31
2022-12-24T10:12:12.170Z,7.01
2022-12-24T10:13:12.164Z,6.82
2022-12-24T10:14:12.241Z,6.71
2022-12-24T10:15:12.251Z,6.71
2022-12-24T10:16:12.165Z,6.94
2022-12-24T10:17:12.282Z,7.11
2022-12-24T10:18:12.161Z,6.99
2022-12-24T10:19:12.161Z,6.82
2022-12-24T10:20:12.176Z,6.81
2022-12-24T10:21:12.153Z,5.58
2022-12-24T10:22:12.151Z,2.14
2022-12-24T10:23:12.150Z,7.17
2022-12-24T10:24:12.184Z,7.19
2022-12-24T10:25:12.143Z,7.03
2022-12-24T10:26:12.154Z,7.05
2022-12-24T10:27:12.148Z,6.44
2022-12-24T10:28:12.143Z,5.53
2022-12-24T10:29:12.166Z,5.11
2022-12-24T10:30:16.932Z,5.26
2022-12-24T10:31:12.213Z,5.63
2022-12-24T10:32:12.142Z,6.91
2022-12-24T10:33:12.149Z,7.79
2022-12-24T10:34:12.167Z,8.04
2022-12-24T10:35:12.166Z,7.97
2022-12-24T10:36:12.596Z,7.46
2022-12-24T10:37:12.267Z,6.53
2022-12-24T10:38:12.143Z,5.75
2022-12-24T10:39:12.158Z,5.51
2022-12-24T10:40:12.161Z,5.51
2022-12-24T10:41:12.157Z,7.19
2022-12-24T10:42:12.152Z,7.59
2022-12-24T10:43:12.171Z,7.04
2022-12-24T10:44:12.173Z,6.14
2022-12-24T10:45:12.169Z,4.86
2022-12-24T10:46:12.239Z,2.35
2022-12-24T10:47:12.181Z,6.25
2022-12-24T10:48:12.147Z,5.89
2022-12-24T10:49:12.166Z,5.67
2022-12-24T10:50:12.166Z,5.67
2022-12-24T10:51:12.168Z,6.23
2022-12-24T10:52:12.168Z,6.41
2022-12-24T10:53:12.223Z,6.27
2022-12-24T10:54:12.186Z,5.99
2022-12-24T10:55:12.167Z,5.87
2022-12-24T10:56:12.162Z,5.84
2022-12-24T10:57:12.152Z,6.3
2022-12-24T10:58:12.161Z,4.31
2022-12-24T10:59:12.168Z,5.88
2022-12-24T11:00:12.225Z,5.88
2022-12-24T11:01:12.291Z,4.49
2022-12-24T11:02:12.359Z,1.55
2022-12-24T11:03:12.216Z,5.04
2022-12-24T11:04:12.168Z,4.91
2022-12-24T11:05:12.176Z,4.74
2022-12-24T11:06:12.188Z,1.83
2022-12-24T11:07:12.162Z,4.61
2022-12-24T11:08:12.169Z,3.58
2022-12-24T11:09:12.175Z,3.58
2022-12-24T11:10:12.152Z,3.58
2022-12-24T11:11:12.167Z,4.25
2022-12-24T11:12:12.170Z,1.76
2022-12-24T11:13:36.198Z,4.6
2022-12-24T11:14:12.171Z,1.98
2022-12-24T11:15:12.159Z,1.53
2022-12-24T11:16:12.211Z,1.53
2022-12-24T11:17:12.168Z,1.76
2022-12-24T11:18:12.160Z,4.38
2022-12-24T11:19:12.175Z,2.81
2022-12-24T11:20:12.167Z,2.81
2022-12-24T11:21:12.165Z,2.63
2022-12-24T11:22:12.167Z,1.66
2022-12-24T11:23:12.263Z,2.19
2022-12-24T11:24:12.410Z,3.74
2022-12-24T11:25:12.164Z,2.84
2022-12-24T11:26:12.147Z,2.84
2022-12-24T11:27:12.144Z,1.41
2022-12-24T11:28:12.145Z,1.54
2022-12-24T11:29:12.169Z,1.56
2022-12-24T11:30:12.311Z,5.01
2022-12-24T11:31:12.214Z,4.43
2022-12-24T11:32:12.147Z,4.81
2022-12-24T11:33:12.167Z,6.01
2022-12-24T11:34:12.164Z,1.54
2022-12-24T11:35:12.174Z,4.93
2022-12-24T11:36:12.277Z,2.83
2022-12-24T11:37:14.951Z,4.9
2022-12-24T11:38:12.143Z,4.8
2022-12-24T11:39:12.155Z,4.83
2022-12-24T11:40:12.177Z,4.67
2022-12-24T11:41:12.139Z,4.22
2022-12-24T11:42:12.142Z,3.95
2022-12-24T11:43:14.856Z,4.12
2022-12-24T11:44:12.192Z,4.38
2022-12-24T11:45:12.147Z,4.7
2022-12-24T11:46:12.263Z,5.1
2022-12-24T11:47:12.188Z,5.05
2022-12-24T11:48:12.147Z,4.51
2022-12-24T11:49:12.188Z,4.78
2022-12-24T11:50:21.237Z,4.78
2022-12-24T11:51:12.142Z,4.5
2022-12-24T11:52:12.197Z,3.76
2022-12-24T11:53:12.165Z,4.23
2022-12-24T11:54:12.160Z,4.23
2022-12-24T11:55:16.315Z,4.39
2022-12-24T11:56:12.180Z,1.55
2022-12-24T11:57:12.167Z,1.34
2022-12-24T11:58:12.172Z,1.1
2022-12-24T11:59:12.222Z,0.95
2022-12-24T12:00:12.236Z,0.95
2022-12-24T12:01:15.811Z,0.85
2022-12-24T12:02:12.175Z,0.82
2022-12-24T12:03:12.223Z,0.77
2022-12-24T12:04:12.298Z,0.67
2022-12-24T12:05:12.192Z,0.62
2022-12-24T12:06:12.171Z,0.61
2022-12-24T12:07:14.972Z,0.63
2022-12-24T12:08:12.165Z,0.65
2022-12-24T12:09:12.229Z,0.65
2022-12-24T12:10:12.162Z,0.65
2022-12-24T12:11:12.169Z,0.55
2022-12-24T12:12:12.166Z,0.5
2022-12-24T12:13:15.477Z,0.49
2022-12-24T12:14:12.271Z,0.49
2022-12-24T12:15:12.164Z,0.51
2022-12-24T12:16:12.220Z,0.51
2022-12-24T12:17:12.164Z,0.59
2022-12-24T12:18:12.162Z,1.37
2022-12-24T12:19:15.255Z,0.71
2022-12-24T12:20:12.287Z,0.66
2022-12-24T12:21:12.163Z,0.65
2022-12-24T12:22:12.144Z,0.62
2022-12-24T12:23:12.165Z,0.63
2022-12-24T12:24:12.177Z,0.71
2022-12-24T12:25:12.156Z,0.86
2022-12-24T12:26:12.158Z,0.95
2022-12-24T12:27:12.164Z,1.07
2022-12-24T12:28:12.169Z,1.13
2022-12-24T12:29:12.167Z,1.11
2022-12-24T12:30:12.299Z,1.04
2022-12-24T12:31:16.067Z,1
2022-12-24T12:32:12.265Z,0.99
2022-12-24T12:33:12.203Z,1
2022-12-24T12:34:12.170Z,0.88
2022-12-24T12:35:12.176Z,0.8
2022-12-24T12:36:12.162Z,0.68
2022-12-24T12:37:14.840Z,0.68
2022-12-24T12:38:12.151Z,0.69
2022-12-24T12:39:12.175Z,0.79
2022-12-24T12:40:12.162Z,0.86
2022-12-24T12:41:12.177Z,0.82
2022-12-24T12:42:12.142Z,0.79
2022-12-24T12:43:14.474Z,0.73
2022-12-24T12:44:12.156Z,0.67
2022-12-24T12:45:12.145Z,0.65
2022-12-24T12:46:12.213Z,0.68
2022-12-24T12:47:12.262Z,0.69
2022-12-24T12:48:12.143Z,0.69
2022-12-24T12:49:12.180Z,0.69
2022-12-24T12:50:12.177Z,0.71
2022-12-24T12:51:12.142Z,0.69
2022-12-24T12:52:12.141Z,0.68
2022-12-24T12:53:12.600Z,0.74
2022-12-24T12:54:12.172Z,0.83
2022-12-24T12:55:12.203Z,0.89
2022-12-24T12:56:12.224Z,0.94
2022-12-24T12:57:12.142Z,0.92
2022-12-24T12:58:13.161Z,0.89
2022-12-24T12:59:12.163Z,0.85
2022-12-24T13:00:12.155Z,0.8
2022-12-24T13:01:12.266Z,0.83
2022-12-24T13:02:12.309Z,0.79
2022-12-24T13:03:12.479Z,0.7
2022-12-24T13:04:12.168Z,0.66
2022-12-24T13:05:12.170Z,0.63
2022-12-24T13:06:12.146Z,0.6
2022-12-24T13:07:12.166Z,0.57
2022-12-24T13:08:12.181Z,0.55
2022-12-24T13:09:12.189Z,0.54
2022-12-24T13:10:12.152Z,0.54
2022-12-24T13:11:12.182Z,0.52
2022-12-24T13:12:12.164Z,0.49
2022-12-24T13:13:16.898Z,0.48
2022-12-24T13:14:12.167Z,0.47
2022-12-24T13:15:12.610Z,0.46
2022-12-24T13:16:12.225Z,0.45
2022-12-24T13:17:12.570Z,0.44
2022-12-24T13:18:12.242Z,0.44
2022-12-24T13:19:12.182Z,0.43
2022-12-24T13:20:12.240Z,0.42
2022-12-24T13:21:12.164Z,0.39
2022-12-24T13:22:12.462Z,0.37
2022-12-24T13:23:12.174Z,0.37
2022-12-24T13:24:12.534Z,0.38
2022-12-24T13:25:12.161Z,0.37
2022-12-24T13:26:12.161Z,0.35
2022-12-24T13:27:12.178Z,0.33
2022-12-24T13:28:12.161Z,0.31
2022-12-24T13:29:12.765Z,0.31
2022-12-24T13:30:12.222Z,0.33
2022-12-24T13:31:12.312Z,0.36
2022-12-24T13:32:12.165Z,0.41
2022-12-24T13:33:12.158Z,0.42
2022-12-24T13:34:12.168Z,0.38
2022-12-24T13:35:12.164Z,0.37
2022-12-24T13:36:12.616Z,0.41
2022-12-24T13:37:12.151Z,0.42
2022-12-24T13:38:12.147Z,0.42
2022-12-24T13:39:12.168Z,0.42
2022-12-24T13:40:12.177Z,0.36
2022-12-24T13:41:12.274Z,0.29
2022-12-24T13:42:12.169Z,0.25
2022-12-24T13:43:12.164Z,0.22
2022-12-24T13:44:12.171Z,0.18
2022-12-24T13:45:12.150Z,0.18
2022-12-24T13:46:12.293Z,0.18
2022-12-24T13:47:12.159Z,0.2
2022-12-24T13:49:10.775Z,0.2
2022-12-24T13:50:09.584Z,0.2
2022-12-24T13:51:09.574Z,0.2
2022-12-24T13:52:22.561Z,0.29
2022-12-24T13:53:20.916Z,0.28
2022-12-24T13:54:20.889Z,0.27
2022-12-24T13:55:20.896Z,0.28
2022-12-24T13:56:20.888Z,0.28
2022-12-24T13:57:20.882Z,0.28
2022-12-24T13:58:20.895Z,0.3
2022-12-24T13:59:20.888Z,0.31
2022-12-24T14:00:20.913Z,0.31
2022-12-24T14:01:20.995Z,0.29